sensor_id;sensor_type;location;lat;lon;timestamp;temperature;humidity
8778;DHT22;4425;50.872;4.712;2023-12-28T00:01:40;10.80;99.90
8778;DHT22;4425;50.872;4.712;2023-12-28T00:04:08;10.80;99.90
8778;DHT22;4425;50.872;4.712;2023-12-28T00:06:35;10.80;99.90
8778;DHT22;4425;50.872;4.712;2023-12-28T00:09:02;10.80;99.90
8778;DHT22;4425;50.872;4.712;2023-12-28T00:11:29;10.80;99.90
8778;DHT22;4425;50.872;4.712;2023-12-28T00:13:56;10.90;99.90
8778;DHT22;4425;50.872;4.712;2023-12-28T00:16:23;10.80;99.90
8778;DHT22;4425;50.872;4.712;2023-12-28T00:18:50;10.70;99.90
8778;DHT22;4425;50.872;4.712;2023-12-28T00:21:18;10.70;99.90
8778;DHT22;4425;50.872;4.712;2023-12-28T00:23:45;10.70;99.90
8778;DHT22;4425;50.872;4.712;2023-12-28T00:26:12;10.70;99.90
8778;DHT22;4425;50.872;4.712;2023-12-28T00:28:39;10.70;99.90
8778;DHT22;4425;50.872;4.712;2023-12-28T00:31:06;10.70;99.90
8778;DHT22;4425;50.872;4.712;2023-12-28T00:33:33;10.70;99.90
8778;DHT22;4425;50.872;4.712;2023-12-28T00:35:59;10.70;99.90
8778;DHT22;4425;50.872;4.712;2023-12-28T00:38:28;10.60;99.90
8778;DHT22;4425;50.872;4.712;2023-12-28T00:40:55;10.60;99.90
8778;DHT22;4425;50.872;4.712;2023-12-28T00:43:21;10.60;99.90
8778;DHT22;4425;50.872;4.712;2023-12-28T00:45:48;10.60;99.90
8778;DHT22;4425;50.872;4.712;2023-12-28T00:48:15;10.50;99.90
8778;DHT22;4425;50.872;4.712;2023-12-28T00:50:42;10.60;99.90
8778;DHT22;4425;50.872;4.712;2023-12-28T00:53:09;10.60;99.90
8778;DHT22;4425;50.872;4.712;2023-12-28T00:55:37;10.60;99.90
8778;DHT22;4425;50.872;4.712;2023-12-28T00:58:04;10.60;99.90
8778;DHT22;4425;50.872;4.712;2023-12-28T01:00:31;10.60;99.90
8778;DHT22;4425;50.872;4.712;2023-12-28T01:02:58;10.60;99.90
8778;DHT22;4425;50.872;4.712;2023-12-28T01:05:25;10.60;99.90
8778;DHT22;4425;50.872;4.712;2023-12-28T01:07:54;10.60;99.90
8778;DHT22;4425;50.872;4.712;2023-12-28T01:10:21;10.50;99.90
8778;DHT22;4425;50.872;4.712;2023-12-28T01:12:49;10.60;99.90
8778;DHT22;4425;50.872;4.712;2023-12-28T01:15:16;10.60;99.90
8778;DHT22;4425;50.872;4.712;2023-12-28T01:17:43;10.60;99.90
8778;DHT22;4425;50.872;4.712;2023-12-28T01:20:10;10.50;99.90
8778;DHT22;4425;50.872;4.712;2023-12-28T01:22:37;10.50;99.90
8778;DHT22;4425;50.872;4.712;2023-12-28T01:25:05;10.60;99.90
8778;DHT22;4425;50.872;4.712;2023-12-28T01:27:33;10.60;99.90
8778;DHT22;4425;50.872;4.712;2023-12-28T01:30:01;10.50;99.90
8778;DHT22;4425;50.872;4.712;2023-12-28T01:32:28;10.50;99.90
8778;DHT22;4425;50.872;4.712;2023-12-28T01:34:55;10.50;99.90
8778;DHT22;4425;50.872;4.712;2023-12-28T01:37:22;10.40;99.90
8778;DHT22;4425;50.872;4.712;2023-12-28T01:39:49;10.40;99.90
8778;DHT22;4425;50.872;4.712;2023-12-28T01:42:16;10.40;99.90
8778;DHT22;4425;50.872;4.712;2023-12-28T01:44:43;10.30;99.90
8778;DHT22;4425;50.872;4.712;2023-12-28T01:47:11;10.30;99.90
8778;DHT22;4425;50.872;4.712;2023-12-28T01:49:38;10.30;99.90
8778;DHT22;4425;50.872;4.712;2023-12-28T01:52:06;10.20;99.90
8778;DHT22;4425;50.872;4.712;2023-12-28T01:54:34;10.20;99.90
8778;DHT22;4425;50.872;4.712;2023-12-28T01:57:01;10.20;99.90
8778;DHT22;4425;50.872;4.712;2023-12-28T01:59:30;10.20;99.90
8778;DHT22;4425;50.872;4.712;2023-12-28T02:01:58;10.10;99.90
8778;DHT22;4425;50.872;4.712;2023-12-28T02:04:26;10.20;99.90
8778;DHT22;4425;50.872;4.712;2023-12-28T02:06:57;10.20;99.90
8778;DHT22;4425;50.872;4.712;2023-12-28T02:09:24;10.10;99.90
8778;DHT22;4425;50.872;4.712;2023-12-28T02:11:51;10.20;99.90
8778;DHT22;4425;50.872;4.712;2023-12-28T02:14:20;10.10;99.90
8778;DHT22;4425;50.872;4.712;2023-12-28T02:16:50;10.10;99.90
8778;DHT22;4425;50.872;4.712;2023-12-28T02:19:31;10.10;99.90
8778;DHT22;4425;50.872;4.712;2023-12-28T02:21:59;10.10;99.90
8778;DHT22;4425;50.872;4.712;2023-12-28T02:24:26;10.10;99.90
8778;DHT22;4425;50.872;4.712;2023-12-28T02:26:54;10.00;99.90
8778;DHT22;4425;50.872;4.712;2023-12-28T02:29:21;10.10;99.90
8778;DHT22;4425;50.872;4.712;2023-12-28T02:31:57;10.10;99.90
8778;DHT22;4425;50.872;4.712;2023-12-28T02:34:29;10.10;99.90
8778;DHT22;4425;50.872;4.712;2023-12-28T02:36:56;10.10;99.90
8778;DHT22;4425;50.872;4.712;2023-12-28T02:39:25;10.10;99.90
8778;DHT22;4425;50.872;4.712;2023-12-28T02:41:55;10.00;99.90
8778;DHT22;4425;50.872;4.712;2023-12-28T02:44:24;10.00;99.90
8778;DHT22;4425;50.872;4.712;2023-12-28T02:46:51;10.00;99.90
8778;DHT22;4425;50.872;4.712;2023-12-28T02:49:18;10.00;99.90
8778;DHT22;4425;50.872;4.712;2023-12-28T02:51:44;10.00;99.90
8778;DHT22;4425;50.872;4.712;2023-12-28T02:54:11;10.00;99.90
8778;DHT22;4425;50.872;4.712;2023-12-28T02:56:39;10.00;99.90
8778;DHT22;4425;50.872;4.712;2023-12-28T02:59:08;10.10;99.90
8778;DHT22;4425;50.872;4.712;2023-12-28T03:01:35;10.10;99.90
8778;DHT22;4425;50.872;4.712;2023-12-28T03:04:02;10.10;99.90
8778;DHT22;4425;50.872;4.712;2023-12-28T03:06:29;10.20;99.90
8778;DHT22;4425;50.872;4.712;2023-12-28T03:08:56;10.20;99.90
8778;DHT22;4425;50.872;4.712;2023-12-28T03:11:23;10.20;99.90
8778;DHT22;4425;50.872;4.712;2023-12-28T03:13:49;10.20;99.90
8778;DHT22;4425;50.872;4.712;2023-12-28T03:16:18;10.20;99.90
8778;DHT22;4425;50.872;4.712;2023-12-28T03:18:45;10.20;99.90
8778;DHT22;4425;50.872;4.712;2023-12-28T03:21:11;10.20;99.90
8778;DHT22;4425;50.872;4.712;2023-12-28T03:23:38;10.20;99.90
8778;DHT22;4425;50.872;4.712;2023-12-28T03:26:05;10.10;99.90
8778;DHT22;4425;50.872;4.712;2023-12-28T03:28:32;10.10;99.90
8778;DHT22;4425;50.872;4.712;2023-12-28T03:31:01;10.10;99.90
8778;DHT22;4425;50.872;4.712;2023-12-28T03:33:30;10.10;99.90
8778;DHT22;4425;50.872;4.712;2023-12-28T03:35:57;10.20;99.90
8778;DHT22;4425;50.872;4.712;2023-12-28T03:38:24;10.20;99.90
8778;DHT22;4425;50.872;4.712;2023-12-28T03:40:51;10.20;99.90
8778;DHT22;4425;50.872;4.712;2023-12-28T03:43:17;10.20;99.90
8778;DHT22;4425;50.872;4.712;2023-12-28T03:45:44;10.20;99.90
8778;DHT22;4425;50.872;4.712;2023-12-28T03:48:11;10.20;99.90
8778;DHT22;4425;50.872;4.712;2023-12-28T03:50:40;10.30;99.90
8778;DHT22;4425;50.872;4.712;2023-12-28T03:53:07;10.30;99.90
8778;DHT22;4425;50.872;4.712;2023-12-28T03:55:33;10.30;99.90
8778;DHT22;4425;50.872;4.712;2023-12-28T03:58:00;10.40;99.90
8778;DHT22;4425;50.872;4.712;2023-12-28T04:00:27;10.40;99.90
8778;DHT22;4425;50.872;4.712;2023-12-28T04:02:54;10.40;99.90
8778;DHT22;4425;50.872;4.712;2023-12-28T04:05:24;10.40;99.90
8778;DHT22;4425;50.872;4.712;2023-12-28T04:07:52;10.40;99.90
8778;DHT22;4425;50.872;4.712;2023-12-28T04:10:29;10.40;99.90
8778;DHT22;4425;50.872;4.712;2023-12-28T04:12:57;10.30;99.90
8778;DHT22;4425;50.872;4.712;2023-12-28T04:15:25;10.50;99.90
8778;DHT22;4425;50.872;4.712;2023-12-28T04:17:52;10.40;99.90
8778;DHT22;4425;50.872;4.712;2023-12-28T04:20:19;10.40;99.90
8778;DHT22;4425;50.872;4.712;2023-12-28T04:22:45;10.40;99.90
8778;DHT22;4425;50.872;4.712;2023-12-28T04:25:13;10.50;99.90
8778;DHT22;4425;50.872;4.712;2023-12-28T04:27:42;10.40;99.90
8778;DHT22;4425;50.872;4.712;2023-12-28T04:30:12;10.40;99.90
8778;DHT22;4425;50.872;4.712;2023-12-28T04:32:39;10.50;99.90
8778;DHT22;4425;50.872;4.712;2023-12-28T04:35:06;10.50;99.90
8778;DHT22;4425;50.872;4.712;2023-12-28T04:37:33;10.50;99.90
8778;DHT22;4425;50.872;4.712;2023-12-28T04:40:00;10.60;99.90
8778;DHT22;4425;50.872;4.712;2023-12-28T04:42:30;10.50;99.90
8778;DHT22;4425;50.872;4.712;2023-12-28T04:44:57;10.50;99.90
8778;DHT22;4425;50.872;4.712;2023-12-28T04:47:24;10.50;99.90
8778;DHT22;4425;50.872;4.712;2023-12-28T04:49:51;10.50;99.90
8778;DHT22;4425;50.872;4.712;2023-12-28T04:52:18;10.50;99.90
8778;DHT22;4425;50.872;4.712;2023-12-28T04:54:44;10.50;99.90
8778;DHT22;4425;50.872;4.712;2023-12-28T04:57:11;10.50;99.90
8778;DHT22;4425;50.872;4.712;2023-12-28T04:59:40;10.60;99.90
8778;DHT22;4425;50.872;4.712;2023-12-28T05:02:07;10.60;99.90
8778;DHT22;4425;50.872;4.712;2023-12-28T05:04:36;10.50;99.90
8778;DHT22;4425;50.872;4.712;2023-12-28T05:07:04;10.50;99.90
8778;DHT22;4425;50.872;4.712;2023-12-28T05:09:31;10.50;99.90
8778;DHT22;4425;50.872;4.712;2023-12-28T05:11:58;10.50;99.90
8778;DHT22;4425;50.872;4.712;2023-12-28T05:14:25;10.50;99.90
8778;DHT22;4425;50.872;4.712;2023-12-28T05:16:53;10.50;99.90
8778;DHT22;4425;50.872;4.712;2023-12-28T05:19:20;10.50;99.90
8778;DHT22;4425;50.872;4.712;2023-12-28T05:21:47;10.50;99.90
8778;DHT22;4425;50.872;4.712;2023-12-28T05:24:14;10.40;99.90
8778;DHT22;4425;50.872;4.712;2023-12-28T05:26:40;10.40;99.90
8778;DHT22;4425;50.872;4.712;2023-12-28T05:29:07;10.30;99.90
8778;DHT22;4425;50.872;4.712;2023-12-28T05:31:34;10.30;99.90
8778;DHT22;4425;50.872;4.712;2023-12-28T05:34:03;10.30;99.90
8778;DHT22;4425;50.872;4.712;2023-12-28T05:36:31;10.30;99.90
8778;DHT22;4425;50.872;4.712;2023-12-28T05:38:58;10.30;99.90
8778;DHT22;4425;50.872;4.712;2023-12-28T05:41:24;10.30;99.90
8778;DHT22;4425;50.872;4.712;2023-12-28T05:43:51;10.30;99.90
8778;DHT22;4425;50.872;4.712;2023-12-28T05:46:18;10.30;99.90
8778;DHT22;4425;50.872;4.712;2023-12-28T05:48:45;10.30;99.90
8778;DHT22;4425;50.872;4.712;2023-12-28T05:51:13;10.40;99.90
8778;DHT22;4425;50.872;4.712;2023-12-28T05:53:40;10.30;99.90
8778;DHT22;4425;50.872;4.712;2023-12-28T05:56:08;10.30;99.90
8778;DHT22;4425;50.872;4.712;2023-12-28T05:58:35;10.40;99.90
8778;DHT22;4425;50.872;4.712;2023-12-28T06:01:04;10.30;99.90
8778;DHT22;4425;50.872;4.712;2023-12-28T06:03:31;10.40;99.90
8778;DHT22;4425;50.872;4.712;2023-12-28T06:05:58;10.30;99.90
8778;DHT22;4425;50.872;4.712;2023-12-28T06:08:26;10.40;99.90
8778;DHT22;4425;50.872;4.712;2023-12-28T06:10:53;10.30;99.90
8778;DHT22;4425;50.872;4.712;2023-12-28T06:13:20;10.30;99.90
8778;DHT22;4425;50.872;4.712;2023-12-28T06:15:47;10.30;99.90
8778;DHT22;4425;50.872;4.712;2023-12-28T06:18:14;10.40;99.90
8778;DHT22;4425;50.872;4.712;2023-12-28T06:20:41;10.40;99.90
8778;DHT22;4425;50.872;4.712;2023-12-28T06:23:07;10.30;99.90
8778;DHT22;4425;50.872;4.712;2023-12-28T06:25:36;10.60;99.90
8778;DHT22;4425;50.872;4.712;2023-12-28T06:28:03;10.40;99.90
8778;DHT22;4425;50.872;4.712;2023-12-28T06:30:30;10.40;99.90
8778;DHT22;4425;50.872;4.712;2023-12-28T06:32:57;10.30;99.90
8778;DHT22;4425;50.872;4.712;2023-12-28T06:35:24;10.30;99.90
8778;DHT22;4425;50.872;4.712;2023-12-28T06:37:50;10.20;99.90
8778;DHT22;4425;50.872;4.712;2023-12-28T06:40:17;10.30;99.90
8778;DHT22;4425;50.872;4.712;2023-12-28T06:42:46;10.30;99.90
8778;DHT22;4425;50.872;4.712;2023-12-28T06:45:13;10.20;99.90
8778;DHT22;4425;50.872;4.712;2023-12-28T06:47:39;10.30;99.90
8778;DHT22;4425;50.872;4.712;2023-12-28T06:50:07;10.40;99.90
8778;DHT22;4425;50.872;4.712;2023-12-28T06:52:34;10.30;99.90
8778;DHT22;4425;50.872;4.712;2023-12-28T06:55:01;10.30;99.90
8778;DHT22;4425;50.872;4.712;2023-12-28T06:57:28;10.30;99.90
8778;DHT22;4425;50.872;4.712;2023-12-28T06:59:56;10.30;99.90
8778;DHT22;4425;50.872;4.712;2023-12-28T07:02:25;10.20;99.90
8778;DHT22;4425;50.872;4.712;2023-12-28T07:04:52;10.20;99.90
8778;DHT22;4425;50.872;4.712;2023-12-28T07:07:19;10.20;99.90
8778;DHT22;4425;50.872;4.712;2023-12-28T07:09:46;10.20;99.90
8778;DHT22;4425;50.872;4.712;2023-12-28T07:12:13;10.10;99.90
8778;DHT22;4425;50.872;4.712;2023-12-28T07:14:40;10.20;99.90
8778;DHT22;4425;50.872;4.712;2023-12-28T07:17:08;10.10;99.90
8778;DHT22;4425;50.872;4.712;2023-12-28T07:19:37;10.10;99.90
8778;DHT22;4425;50.872;4.712;2023-12-28T07:22:04;10.10;99.90
8778;DHT22;4425;50.872;4.712;2023-12-28T07:24:31;10.10;99.90
8778;DHT22;4425;50.872;4.712;2023-12-28T07:26:58;10.00;99.90
8778;DHT22;4425;50.872;4.712;2023-12-28T07:29:24;10.00;99.90
8778;DHT22;4425;50.872;4.712;2023-12-28T07:31:53;10.10;99.90
8778;DHT22;4425;50.872;4.712;2023-12-28T07:34:21;10.10;99.90
8778;DHT22;4425;50.872;4.712;2023-12-28T07:36:48;10.00;99.90
8778;DHT22;4425;50.872;4.712;2023-12-28T07:39:15;10.00;99.90
8778;DHT22;4425;50.872;4.712;2023-12-28T07:41:41;10.00;99.90
8778;DHT22;4425;50.872;4.712;2023-12-28T07:44:08;9.90;99.90
8778;DHT22;4425;50.872;4.712;2023-12-28T07:46:35;10.00;99.90
8778;DHT22;4425;50.872;4.712;2023-12-28T07:49:02;9.90;99.90
8778;DHT22;4425;50.872;4.712;2023-12-28T07:51:30;9.90;99.90
8778;DHT22;4425;50.872;4.712;2023-12-28T07:53:57;9.80;99.90
8778;DHT22;4425;50.872;4.712;2023-12-28T07:56:24;9.80;99.90
8778;DHT22;4425;50.872;4.712;2023-12-28T07:58:51;9.70;99.90
8778;DHT22;4425;50.872;4.712;2023-12-28T08:01:18;9.80;99.90
8778;DHT22;4425;50.872;4.712;2023-12-28T08:03:44;9.80;99.90
8778;DHT22;4425;50.872;4.712;2023-12-28T08:06:11;9.80;99.90
8778;DHT22;4425;50.872;4.712;2023-12-28T08:08:39;9.70;99.90
8778;DHT22;4425;50.872;4.712;2023-12-28T08:11:06;9.80;99.90
8778;DHT22;4425;50.872;4.712;2023-12-28T08:13:33;9.80;99.90
8778;DHT22;4425;50.872;4.712;2023-12-28T08:16:00;9.70;99.90
8778;DHT22;4425;50.872;4.712;2023-12-28T08:18:28;9.80;99.90
8778;DHT22;4425;50.872;4.712;2023-12-28T08:20:55;9.80;99.90
8778;DHT22;4425;50.872;4.712;2023-12-28T08:23:22;9.80;99.90
8778;DHT22;4425;50.872;4.712;2023-12-28T08:25:50;9.80;99.90
8778;DHT22;4425;50.872;4.712;2023-12-28T08:28:17;9.80;99.90
8778;DHT22;4425;50.872;4.712;2023-12-28T08:30:44;9.90;99.90
8778;DHT22;4425;50.872;4.712;2023-12-28T08:33:11;9.90;99.90
8778;DHT22;4425;50.872;4.712;2023-12-28T08:35:38;9.90;99.90
8778;DHT22;4425;50.872;4.712;2023-12-28T08:38:05;10.00;99.90
8778;DHT22;4425;50.872;4.712;2023-12-28T08:40:33;10.00;99.90
8778;DHT22;4425;50.872;4.712;2023-12-28T08:43:01;10.20;99.90
8778;DHT22;4425;50.872;4.712;2023-12-28T08:45:28;10.20;99.90
8778;DHT22;4425;50.872;4.712;2023-12-28T08:47:55;10.30;99.90
8778;DHT22;4425;50.872;4.712;2023-12-28T08:50:22;10.40;99.90
8778;DHT22;4425;50.872;4.712;2023-12-28T08:52:49;10.50;99.90
8778;DHT22;4425;50.872;4.712;2023-12-28T08:55:15;10.50;99.90
8778;DHT22;4425;50.872;4.712;2023-12-28T08:57:43;10.50;99.90
8778;DHT22;4425;50.872;4.712;2023-12-28T09:00:12;10.50;99.90
8778;DHT22;4425;50.872;4.712;2023-12-28T09:02:40;10.60;99.90
8778;DHT22;4425;50.872;4.712;2023-12-28T09:05:09;10.70;99.90
8778;DHT22;4425;50.872;4.712;2023-12-28T09:07:36;10.70;99.90
8778;DHT22;4425;50.872;4.712;2023-12-28T09:10:09;10.80;99.90
8778;DHT22;4425;50.872;4.712;2023-12-28T09:12:36;10.80;99.90
8778;DHT22;4425;50.872;4.712;2023-12-28T09:15:04;10.80;99.90
8778;DHT22;4425;50.872;4.712;2023-12-28T09:17:32;10.80;99.90
8778;DHT22;4425;50.872;4.712;2023-12-28T09:19:59;10.80;99.90
8778;DHT22;4425;50.872;4.712;2023-12-28T09:22:27;10.80;99.90
8778;DHT22;4425;50.872;4.712;2023-12-28T09:24:54;10.80;99.90
8778;DHT22;4425;50.872;4.712;2023-12-28T09:27:21;10.80;99.90
8778;DHT22;4425;50.872;4.712;2023-12-28T09:29:47;10.80;99.90
8778;DHT22;4425;50.872;4.712;2023-12-28T09:32:14;10.80;99.90
8778;DHT22;4425;50.872;4.712;2023-12-28T09:34:43;10.80;99.90
8778;DHT22;4425;50.872;4.712;2023-12-28T09:37:10;10.80;99.90
8778;DHT22;4425;50.872;4.712;2023-12-28T09:39:37;10.80;99.90
8778;DHT22;4425;50.872;4.712;2023-12-28T09:42:06;10.80;99.90
8778;DHT22;4425;50.872;4.712;2023-12-28T09:44:38;10.80;99.90
8778;DHT22;4425;50.872;4.712;2023-12-28T09:47:07;10.80;99.90
8778;DHT22;4425;50.872;4.712;2023-12-28T09:49:37;10.80;99.90
8778;DHT22;4425;50.872;4.712;2023-12-28T09:52:06;10.90;99.90
8778;DHT22;4425;50.872;4.712;2023-12-28T09:54:34;10.90;99.90
8778;DHT22;4425;50.872;4.712;2023-12-28T09:57:01;11.00;99.90
8778;DHT22;4425;50.872;4.712;2023-12-28T09:59:28;11.00;99.90
8778;DHT22;4425;50.872;4.712;2023-12-28T10:01:58;11.10;99.90
8778;DHT22;4425;50.872;4.712;2023-12-28T10:04:28;11.10;99.90
8778;DHT22;4425;50.872;4.712;2023-12-28T10:06:55;11.20;99.90
8778;DHT22;4425;50.872;4.712;2023-12-28T10:09:24;11.30;99.90
8778;DHT22;4425;50.872;4.712;2023-12-28T10:11:53;11.30;99.90
8778;DHT22;4425;50.872;4.712;2023-12-28T10:14:20;11.30;99.90
8778;DHT22;4425;50.872;4.712;2023-12-28T10:16:47;11.50;99.90
8778;DHT22;4425;50.872;4.712;2023-12-28T10:19:14;11.50;99.90
8778;DHT22;4425;50.872;4.712;2023-12-28T10:21:40;11.70;99.90
8778;DHT22;4425;50.872;4.712;2023-12-28T10:24:10;11.60;99.90
8778;DHT22;4425;50.872;4.712;2023-12-28T10:26:38;11.60;99.90
8778;DHT22;4425;50.872;4.712;2023-12-28T10:29:05;11.70;99.90
8778;DHT22;4425;50.872;4.712;2023-12-28T10:31:32;11.70;99.90
8778;DHT22;4425;50.872;4.712;2023-12-28T10:33:59;11.70;99.90
8778;DHT22;4425;50.872;4.712;2023-12-28T10:36:27;11.80;99.90
8778;DHT22;4425;50.872;4.712;2023-12-28T10:38:55;11.70;99.90
8778;DHT22;4425;50.872;4.712;2023-12-28T10:41:23;11.70;99.90
8778;DHT22;4425;50.872;4.712;2023-12-28T10:43:56;11.70;99.90
8778;DHT22;4425;50.872;4.712;2023-12-28T10:46:27;11.80;99.90
8778;DHT22;4425;50.872;4.712;2023-12-28T10:48:59;11.80;99.90
8778;DHT22;4425;50.872;4.712;2023-12-28T10:51:27;12.00;99.90
8778;DHT22;4425;50.872;4.712;2023-12-28T10:54:02;11.90;99.90
8778;DHT22;4425;50.872;4.712;2023-12-28T10:56:36;12.00;99.90
8778;DHT22;4425;50.872;4.712;2023-12-28T10:59:10;12.00;99.90
8778;DHT22;4425;50.872;4.712;2023-12-28T11:01:41;12.00;99.90
8778;DHT22;4425;50.872;4.712;2023-12-28T11:04:17;12.10;99.90
8778;DHT22;4425;50.872;4.712;2023-12-28T11:06:46;12.10;99.90
8778;DHT22;4425;50.872;4.712;2023-12-28T11:09:15;12.20;99.90
8778;DHT22;4425;50.872;4.712;2023-12-28T11:11:43;12.30;99.90
8778;DHT22;4425;50.872;4.712;2023-12-28T11:14:12;12.30;99.90
8778;DHT22;4425;50.872;4.712;2023-12-28T11:16:40;12.30;99.90
8778;DHT22;4425;50.872;4.712;2023-12-28T11:19:08;12.40;99.90
8778;DHT22;4425;50.872;4.712;2023-12-28T11:21:36;12.50;99.90
8778;DHT22;4425;50.872;4.712;2023-12-28T11:24:04;12.40;99.90
8778;DHT22;4425;50.872;4.712;2023-12-28T11:26:32;12.40;99.90
8778;DHT22;4425;50.872;4.712;2023-12-28T11:29:02;12.50;99.90
8778;DHT22;4425;50.872;4.712;2023-12-28T11:31:33;12.40;99.90
8778;DHT22;4425;50.872;4.712;2023-12-28T11:34:01;12.40;99.90
8778;DHT22;4425;50.872;4.712;2023-12-28T11:36:33;12.40;99.90
8778;DHT22;4425;50.872;4.712;2023-12-28T11:39:03;12.40;99.90
8778;DHT22;4425;50.872;4.712;2023-12-28T11:41:32;12.40;99.90
8778;DHT22;4425;50.872;4.712;2023-12-28T11:44:02;12.40;99.90
8778;DHT22;4425;50.872;4.712;2023-12-28T11:46:30;12.40;99.90
8778;DHT22;4425;50.872;4.712;2023-12-28T11:49:04;12.40;99.90
8778;DHT22;4425;50.872;4.712;2023-12-28T11:51:34;12.50;99.90
8778;DHT22;4425;50.872;4.712;2023-12-28T11:54:03;12.40;99.90
8778;DHT22;4425;50.872;4.712;2023-12-28T11:56:30;12.50;99.90
8778;DHT22;4425;50.872;4.712;2023-12-28T11:58:58;12.60;99.90
8778;DHT22;4425;50.872;4.712;2023-12-28T12:01:25;12.60;99.90
8778;DHT22;4425;50.872;4.712;2023-12-28T12:03:54;12.60;99.90
8778;DHT22;4425;50.872;4.712;2023-12-28T12:06:24;12.60;99.90
8778;DHT22;4425;50.872;4.712;2023-12-28T12:08:51;12.60;99.90
8778;DHT22;4425;50.872;4.712;2023-12-28T12:11:18;12.50;99.90
8778;DHT22;4425;50.872;4.712;2023-12-28T12:13:45;12.50;99.90
8778;DHT22;4425;50.872;4.712;2023-12-28T12:16:13;12.50;99.90
8778;DHT22;4425;50.872;4.712;2023-12-28T12:18:41;12.40;99.90
8778;DHT22;4425;50.872;4.712;2023-12-28T12:21:08;12.40;99.90
8778;DHT22;4425;50.872;4.712;2023-12-28T12:23:37;12.30;99.90
8778;DHT22;4425;50.872;4.712;2023-12-28T12:26:05;12.40;99.90
8778;DHT22;4425;50.872;4.712;2023-12-28T12:28:35;12.40;99.90
8778;DHT22;4425;50.872;4.712;2023-12-28T12:31:03;12.40;99.90
8778;DHT22;4425;50.872;4.712;2023-12-28T12:33:31;12.40;99.90
8778;DHT22;4425;50.872;4.712;2023-12-28T12:35:58;12.40;99.90
8778;DHT22;4425;50.872;4.712;2023-12-28T12:38:25;12.50;99.90
8778;DHT22;4425;50.872;4.712;2023-12-28T12:40:53;12.40;99.90
8778;DHT22;4425;50.872;4.712;2023-12-28T12:43:21;12.30;99.90
8778;DHT22;4425;50.872;4.712;2023-12-28T12:45:48;12.30;99.90
8778;DHT22;4425;50.872;4.712;2023-12-28T12:48:15;12.20;99.90
8778;DHT22;4425;50.872;4.712;2023-12-28T12:50:43;12.20;99.90
8778;DHT22;4425;50.872;4.712;2023-12-28T12:53:10;12.20;99.90
8778;DHT22;4425;50.872;4.712;2023-12-28T12:55:37;12.20;99.90
8778;DHT22;4425;50.872;4.712;2023-12-28T12:58:09;12.20;99.90
8778;DHT22;4425;50.872;4.712;2023-12-28T13:00:38;12.20;99.90
8778;DHT22;4425;50.872;4.712;2023-12-28T13:03:07;12.20;99.90
8778;DHT22;4425;50.872;4.712;2023-12-28T13:05:35;12.20;99.90
8778;DHT22;4425;50.872;4.712;2023-12-28T13:08:03;12.20;99.90
8778;DHT22;4425;50.872;4.712;2023-12-28T13:10:30;12.20;99.90
8778;DHT22;4425;50.872;4.712;2023-12-28T13:12:57;12.20;99.90
8778;DHT22;4425;50.872;4.712;2023-12-28T13:15:25;12.10;99.90
8778;DHT22;4425;50.872;4.712;2023-12-28T13:17:52;12.10;99.90
8778;DHT22;4425;50.872;4.712;2023-12-28T13:20:19;12.00;99.90
8778;DHT22;4425;50.872;4.712;2023-12-28T13:22:46;11.90;99.90
8778;DHT22;4425;50.872;4.712;2023-12-28T13:25:13;12.00;99.90
8778;DHT22;4425;50.872;4.712;2023-12-28T13:27:40;11.90;99.90
8778;DHT22;4425;50.872;4.712;2023-12-28T13:30:08;11.90;99.90
8778;DHT22;4425;50.872;4.712;2023-12-28T13:32:36;11.90;99.90
8778;DHT22;4425;50.872;4.712;2023-12-28T13:35:07;11.80;99.90
8778;DHT22;4425;50.872;4.712;2023-12-28T13:37:34;11.80;99.90
8778;DHT22;4425;50.872;4.712;2023-12-28T13:40:01;11.90;99.90
8778;DHT22;4425;50.872;4.712;2023-12-28T13:42:28;11.90;99.90
8778;DHT22;4425;50.872;4.712;2023-12-28T13:44:55;11.80;99.90
8778;DHT22;4425;50.872;4.712;2023-12-28T13:47:21;11.80;99.90
8778;DHT22;4425;50.872;4.712;2023-12-28T13:49:50;11.90;99.90
8778;DHT22;4425;50.872;4.712;2023-12-28T13:52:18;11.80;99.90
8778;DHT22;4425;50.872;4.712;2023-12-28T13:54:45;11.80;99.90
8778;DHT22;4425;50.872;4.712;2023-12-28T13:57:12;11.80;99.90
8778;DHT22;4425;50.872;4.712;2023-12-28T13:59:39;11.80;99.90
8778;DHT22;4425;50.872;4.712;2023-12-28T14:02:06;11.80;99.90
8778;DHT22;4425;50.872;4.712;2023-12-28T14:04:33;11.80;99.90
8778;DHT22;4425;50.872;4.712;2023-12-28T14:07:01;11.80;99.90
8778;DHT22;4425;50.872;4.712;2023-12-28T14:09:29;11.80;99.90
8778;DHT22;4425;50.872;4.712;2023-12-28T14:11:58;11.80;99.90
8778;DHT22;4425;50.872;4.712;2023-12-28T14:14:25;11.70;99.90
8778;DHT22;4425;50.872;4.712;2023-12-28T14:16:51;11.80;99.90
8778;DHT22;4425;50.872;4.712;2023-12-28T14:19:18;11.70;99.90
8778;DHT22;4425;50.872;4.712;2023-12-28T14:21:46;11.90;99.90
8778;DHT22;4425;50.872;4.712;2023-12-28T14:24:16;11.90;99.90
8778;DHT22;4425;50.872;4.712;2023-12-28T14:26:44;11.90;99.90
8778;DHT22;4425;50.872;4.712;2023-12-28T14:29:12;11.80;99.90
8778;DHT22;4425;50.872;4.712;2023-12-28T14:31:41;11.80;99.90
8778;DHT22;4425;50.872;4.712;2023-12-28T14:34:10;11.80;99.90
8778;DHT22;4425;50.872;4.712;2023-12-28T14:36:37;11.80;99.90
8778;DHT22;4425;50.872;4.712;2023-12-28T14:39:06;11.80;99.90
8778;DHT22;4425;50.872;4.712;2023-12-28T14:41:35;11.70;99.90
8778;DHT22;4425;50.872;4.712;2023-12-28T14:44:02;11.70;99.90
8778;DHT22;4425;50.872;4.712;2023-12-28T14:46:30;11.70;99.90
8778;DHT22;4425;50.872;4.712;2023-12-28T14:48:57;11.60;99.90
8778;DHT22;4425;50.872;4.712;2023-12-28T14:51:26;11.60;99.90
8778;DHT22;4425;50.872;4.712;2023-12-28T14:53:53;11.60;99.90
8778;DHT22;4425;50.872;4.712;2023-12-28T14:56:20;11.60;99.90
8778;DHT22;4425;50.872;4.712;2023-12-28T14:58:48;11.60;99.90
8778;DHT22;4425;50.872;4.712;2023-12-28T15:01:16;11.50;99.90
8778;DHT22;4425;50.872;4.712;2023-12-28T15:03:43;11.50;99.90
8778;DHT22;4425;50.872;4.712;2023-12-28T15:06:10;11.40;99.90
8778;DHT22;4425;50.872;4.712;2023-12-28T15:08:37;11.40;99.90
8778;DHT22;4425;50.872;4.712;2023-12-28T15:11:05;11.40;99.90
8778;DHT22;4425;50.872;4.712;2023-12-28T15:13:33;11.40;99.90
8778;DHT22;4425;50.872;4.712;2023-12-28T15:16:02;11.40;99.90
8778;DHT22;4425;50.872;4.712;2023-12-28T15:18:30;11.40;99.90
8778;DHT22;4425;50.872;4.712;2023-12-28T15:20:58;11.40;99.90
8778;DHT22;4425;50.872;4.712;2023-12-28T15:23:26;11.40;99.90
8778;DHT22;4425;50.872;4.712;2023-12-28T15:25:53;11.40;99.90
8778;DHT22;4425;50.872;4.712;2023-12-28T15:28:20;11.30;99.90
8778;DHT22;4425;50.872;4.712;2023-12-28T15:30:49;11.30;99.90
8778;DHT22;4425;50.872;4.712;2023-12-28T15:33:17;11.30;99.90
8778;DHT22;4425;50.872;4.712;2023-12-28T15:35:47;11.30;99.90
8778;DHT22;4425;50.872;4.712;2023-12-28T15:38:14;11.30;99.90
8778;DHT22;4425;50.872;4.712;2023-12-28T15:40:41;11.30;99.90
8778;DHT22;4425;50.872;4.712;2023-12-28T15:43:09;11.20;99.90
8778;DHT22;4425;50.872;4.712;2023-12-28T15:45:36;11.20;99.90
8778;DHT22;4425;50.872;4.712;2023-12-28T15:48:04;11.10;99.90
8778;DHT22;4425;50.872;4.712;2023-12-28T15:50:32;11.10;99.90
8778;DHT22;4425;50.872;4.712;2023-12-28T15:52:59;11.10;99.90
8778;DHT22;4425;50.872;4.712;2023-12-28T15:55:26;11.10;99.90
8778;DHT22;4425;50.872;4.712;2023-12-28T15:57:52;11.10;99.90
8778;DHT22;4425;50.872;4.712;2023-12-28T16:00:20;11.10;99.90
8778;DHT22;4425;50.872;4.712;2023-12-28T16:02:47;11.00;99.90
8778;DHT22;4425;50.872;4.712;2023-12-28T16:05:14;11.00;99.90